Phoenix Cross — MRBQ7 — position and weather

sailwx.info

Track history (hours):
 
Tides and Currents Weather Stations Pressure Air Temp Water Temp Dewpoint Dewpoint Depression Visibility Wind Speed Wind Dir Waves Ship Positions

Phoenix Cross

Last reported at 2014-Dec-21 11:31 UTC. Time now 2014-Dec-22 03:32 UTC.
Position N 54°35' W 001°13'.

Length 30 m; draft 5 m.

Type: Ship. MMSI: 235067452.

Date/timePositionNaut miles runAvg speedWind from/ knotsBaromVisibWave heightAir tempDewpointWater temp
2014-Dec-21 11:31N 54°35' W 001°13'0 0.0
2014-Dec-21 10:33N 54°35' W 001°13'0 0.0
2014-Dec-21 09:33N 54°35' W 001°13'3 2.9
2014-Dec-21 08:32N 54°37' W 001°10'1 0.8
2014-Dec-21 07:33N 54°38' W 001°09'2 0.1
2014-Dec-19 23:25N 54°40' W 001°08'2 2.1
2014-Dec-19 22:28N 54°41' W 001°11'6 0.9
2014-Dec-19 15:29N 54°35' W 001°13'0 0.0
2014-Dec-19 14:33N 54°35' W 001°13'0 0.0
2014-Dec-19 13:33N 54°35' W 001°13'0 0.0
2014-Dec-19 12:33N 54°35' W 001°13'0 0.0
2014-Dec-19 11:33N 54°35' W 001°13'0 0.0
2014-Dec-19 10:33N 54°35' W 001°13'0 0.0
2014-Dec-19 09:33N 54°35' W 001°13'0 0.0
2014-Dec-19 08:33N 54°35' W 001°13'3 3.0
2014-Dec-19 07:32N 54°37' W 001°10'0 0.4
2014-Dec-19 06:33N 54°37' W 001°09'1 0.1
2014-Dec-18 21:04N 54°38' W 001°09'1 2.4
2014-Dec-18 20:31N 54°39' W 001°08'5 0.7
2014-Dec-18 13:33N 54°35' W 001°13'0 0.0
2014-Dec-18 12:33N 54°35' W 001°13'0 0.0
2014-Dec-18 11:33N 54°35' W 001°13'0 0.0
2014-Dec-18 10:29N 54°35' W 001°13'0 0.0
2014-Dec-18 09:33N 54°35' W 001°13'2 1.5
2014-Dec-18 08:30N 54°36' W 001°11'2 2.1
2014-Dec-18 07:33N 54°38' W 001°10'3 0.2
2014-Dec-17 16:05N 54°35' W 001°13'0 0.0
2014-Dec-17 15:23N 54°35' W 001°13'0 0.0
2014-Dec-17 14:33N 54°35' W 001°13'0 0.0
2014-Dec-17 13:31N 54°35' W 001°13'0 0.0
2014-Dec-17 12:33N 54°35' W 001°13'0 0.0
2014-Dec-17 11:33N 54°35' W 001°13'0 0.0
2014-Dec-17 10:31N 54°35' W 001°13'0 0.0
2014-Dec-17 09:32N 54°35' W 001°13'2 1.5
2014-Dec-17 08:17N 54°36' W 001°10'2 2.3
2014-Dec-17 07:33N 54°38' W 001°10'0 0.4
2014-Dec-17 06:32N 54°37' W 001°09'3 0.2
2014-Dec-16 15:30N 54°35' W 001°13'0 0.0
2014-Dec-16 14:32N 54°35' W 001°13'0 0.0
2014-Dec-16 13:32N 54°35' W 001°13'0 0.0
2014-Dec-16 12:34N 54°35' W 001°13'0 0.0
2014-Dec-16 11:33N 54°35' W 001°13'0 0.0
2014-Dec-16 10:33N 54°35' W 001°13'0 0.0
2014-Dec-16 09:32N 54°35' W 001°13'0 0.0
2014-Dec-16 08:28N 54°35' W 001°13'3 3.2
2014-Dec-16 07:33N 54°37' W 001°09'0 0.2
2014-Dec-16 06:33N 54°37' W 001°09'3 0.2
2014-Dec-15 17:14N 54°35' W 001°13'0 0.0
2014-Dec-15 15:24N 54°35' W 001°13'0 0.0
2014-Dec-15 14:31N 54°35' W 001°13'0 0.0
2014-Dec-15 13:34N 54°35' W 001°13'0 0.0
2014-Dec-15 12:32N 54°35' W 001°13'0 0.0
2014-Dec-15 11:33N 54°35' W 001°13'0 0.0
2014-Dec-15 10:33N 54°35' W 001°13'0 0.0
2014-Dec-15 09:33N 54°35' W 001°13'0 0.0
2014-Dec-15 08:33N 54°35' W 001°13'3 1.4
2014-Dec-15 06:21N 54°37' W 001°09'1 0.1
2014-Dec-14 11:05N 54°36' W 001°10'1 1.1
2014-Dec-14 10:33N 54°37' W 001°09'1 0.9
2014-Dec-14 09:33N 54°38' W 001°10'0 0.1
2014-Dec-14 08:34N 54°38' W 001°10'0 0.3
2014-Dec-14 07:33N 54°37' W 001°09'3 0.1
2014-Dec-12 15:14N 54°35' W 001°13'1 1.5
2014-Dec-12 14:33N 54°35' W 001°11'1 1.0
2014-Dec-12 13:33N 54°35' W 001°13'0 0.0
2014-Dec-12 12:33N 54°35' W 001°13'0 0.0
2014-Dec-12 11:32N 54°35' W 001°13'0 0.0
2014-Dec-12 10:31N 54°35' W 001°13'0 0.0
2014-Dec-12 09:33N 54°35' W 001°13'3 3.1
2014-Dec-12 08:33N 54°38' W 001°10'1 0.6
2014-Dec-12 07:33N 54°38' W 001°09'3 2.6
2014-Dec-12 06:29N 54°35' W 001°11'  
Track history (hours):
 
Tides and Currents Weather Stations Pressure Air Temp Water Temp Dewpoint Dewpoint Depression Visibility Wind Speed Wind Dir Waves Ship Positions

Phoenix Cross

Last reported at 2014-Dec-21 11:31 UTC. Time now 2014-Dec-22 03:32 UTC.
Position N 54°35' W 001°13'.

Length 30 m; draft 5 m.

Type: Ship. MMSI: 235067452.

Date/timePositionNaut miles runAvg speedWind from/ knotsBaromVisibWave heightAir tempDewpointWater temp
2014-Dec-21 11:31N 54°35' W 001°13'0 0.0
2014-Dec-21 10:33N 54°35' W 001°13'0 0.0
2014-Dec-21 09:33N 54°35' W 001°13'3 2.9
2014-Dec-21 08:32N 54°37' W 001°10'1 0.8
2014-Dec-21 07:33N 54°38' W 001°09'2 0.1
2014-Dec-19 23:25N 54°40' W 001°08'2 2.1
2014-Dec-19 22:28N 54°41' W 001°11'6 0.9
2014-Dec-19 15:29N 54°35' W 001°13'0 0.0
2014-Dec-19 14:33N 54°35' W 001°13'0 0.0
2014-Dec-19 13:33N 54°35' W 001°13'0 0.0
2014-Dec-19 12:33N 54°35' W 001°13'0 0.0
2014-Dec-19 11:33N 54°35' W 001°13'0 0.0
2014-Dec-19 10:33N 54°35' W 001°13'0 0.0
2014-Dec-19 09:33N 54°35' W 001°13'0 0.0
2014-Dec-19 08:33N 54°35' W 001°13'3 3.0
2014-Dec-19 07:32N 54°37' W 001°10'0 0.4
2014-Dec-19 06:33N 54°37' W 001°09'1 0.1
2014-Dec-18 21:04N 54°38' W 001°09'1 2.4
2014-Dec-18 20:31N 54°39' W 001°08'5 0.7
2014-Dec-18 13:33N 54°35' W 001°13'0 0.0
2014-Dec-18 12:33N 54°35' W 001°13'0 0.0
2014-Dec-18 11:33N 54°35' W 001°13'0 0.0
2014-Dec-18 10:29N 54°35' W 001°13'0 0.0
2014-Dec-18 09:33N 54°35' W 001°13'2 1.5
2014-Dec-18 08:30N 54°36' W 001°11'2 2.1
2014-Dec-18 07:33N 54°38' W 001°10'3 0.2
2014-Dec-17 16:05N 54°35' W 001°13'0 0.0
2014-Dec-17 15:23N 54°35' W 001°13'0 0.0
2014-Dec-17 14:33N 54°35' W 001°13'0 0.0
2014-Dec-17 13:31N 54°35' W 001°13'0 0.0
2014-Dec-17 12:33N 54°35' W 001°13'0 0.0
2014-Dec-17 11:33N 54°35' W 001°13'0 0.0
2014-Dec-17 10:31N 54°35' W 001°13'0 0.0
2014-Dec-17 09:32N 54°35' W 001°13'2 1.5
2014-Dec-17 08:17N 54°36' W 001°10'2 2.3
2014-Dec-17 07:33N 54°38' W 001°10'0 0.4
2014-Dec-17 06:32N 54°37' W 001°09'3 0.2
2014-Dec-16 15:30N 54°35' W 001°13'0 0.0
2014-Dec-16 14:32N 54°35' W 001°13'0 0.0
2014-Dec-16 13:32N 54°35' W 001°13'0 0.0
2014-Dec-16 12:34N 54°35' W 001°13'0 0.0
2014-Dec-16 11:33N 54°35' W 001°13'0 0.0
2014-Dec-16 10:33N 54°35' W 001°13'0 0.0
2014-Dec-16 09:32N 54°35' W 001°13'0 0.0
2014-Dec-16 08:28N 54°35' W 001°13'3 3.2
2014-Dec-16 07:33N 54°37' W 001°09'0 0.2
2014-Dec-16 06:33N 54°37' W 001°09'3 0.2
2014-Dec-15 17:14N 54°35' W 001°13'0 0.0
2014-Dec-15 15:24N 54°35' W 001°13'0 0.0
2014-Dec-15 14:31N 54°35' W 001°13'0 0.0
2014-Dec-15 13:34N 54°35' W 001°13'0 0.0
2014-Dec-15 12:32N 54°35' W 001°13'0 0.0
2014-Dec-15 11:33N 54°35' W 001°13'0 0.0
2014-Dec-15 10:33N 54°35' W 001°13'0 0.0
2014-Dec-15 09:33N 54°35' W 001°13'0 0.0
2014-Dec-15 08:33N 54°35' W 001°13'3 1.4
2014-Dec-15 06:21N 54°37' W 001°09'1 0.1
2014-Dec-14 11:05N 54°36' W 001°10'1 1.1
2014-Dec-14 10:33N 54°37' W 001°09'1 0.9
2014-Dec-14 09:33N 54°38' W 001°10'0 0.1
2014-Dec-14 08:34N 54°38' W 001°10'0 0.3
2014-Dec-14 07:33N 54°37' W 001°09'3 0.1
2014-Dec-12 15:14N 54°35' W 001°13'1 1.5
2014-Dec-12 14:33N 54°35' W 001°11'1 1.0
2014-Dec-12 13:33N 54°35' W 001°13'0 0.0
2014-Dec-12 12:33N 54°35' W 001°13'0 0.0
2014-Dec-12 11:32N 54°35' W 001°13'0 0.0
2014-Dec-12 10:31N 54°35' W 001°13'0 0.0
2014-Dec-12 09:33N 54°35' W 001°13'3 3.1
2014-Dec-12 08:33N 54°38' W 001°10'1 0.6
2014-Dec-12 07:33N 54°38' W 001°09'3 2.6
2014-Dec-12 06:29N 54°35' W 001°11'  

Dump ship's entire track history